Impacts METAR Board
IDs:

KMCO - Orlando Intl, FL, US

Updated at: 1300 UTC 07 Jul 2020
Potential Impact None Slight Moderate High
Time 07/01Z 07/02Z 07/03Z 07/04Z 07/05Z 07/06Z 07/07Z 07/08Z 07/09Z 07/10Z 07/11Z 07/12Z 07/13Z
Temp75 76 76 76 75 75 74 75 74 74 74 77 81
Dewpt73 73 74 74 73 73 73 73 73 73 73 76 77
Altim30.04 30.07 30.09 30.09 30.08 30.07 30.05 30.04 30.04 30.05 30.06 30.06 30.08
VIS10 10 10 10 10 10 10 10 10 10 7 10 10
CIG200 220 250 250 -- -- -- -- -- -- -- -- --
CoverOVCOVCOVCBKNSCTFEWSCTFEWCLRFEWSCTFEWFEW
FltCatVFRVFRVFRVFRVFRVFRVFRVFRVFRVFRVFRVFRVFR
WX--------------------------
WDir21001601301601601701701701800200210
WSpd4 0 4 3 5 3 4 4 4 3 0 5 6
WGst-- -- -- -- -- -- -- -- -- -- -- -- --
Raw hourly METARs
KMCO 070053Z 21004KT 10SM FEW130 BKN200 OVC250 24/23 A3004 RMK AO2 RAB09E39 SLP172 P0000 T02390228
KMCO 070153Z 00000KT 10SM FEW160 OVC220 24/23 A3007 RMK AO2 SLP180 T02440228
KMCO 070253Z 16004KT 10SM FEW150 OVC250 24/23 A3009 RMK AO2 SLP189 60000 T02440233 53011
KMCO 070353Z 13003KT 10SM FEW010 SCT170 BKN250 24/23 A3009 RMK AO2 SLP187 T02440233
KMCO 070453Z 16005KT 10SM FEW010 FEW170 SCT250 24/23 A3008 RMK AO2 SLP185 T02390228 403330217
KMCO 070553Z 16003KT 10SM FEW010 FEW250 24/23 A3007 RMK AO2 SLP179 60000 T02390228 10244 20233 58009
KMCO 070653Z 17004KT 10SM FEW010 SCT230 23/23 A3005 RMK AO2 SLP173 T02330228
KMCO 070753Z 17004KT 10SM FEW010 FEW250 24/23 A3004 RMK AO2 SLP171 T02390228
KMCO 070853Z 17004KT 10SM CLR 23/23 A3004 RMK AO2 SLP170 T02330228 56009
KMCO 070953Z 18003KT 10SM FEW250 23/23 A3005 RMK AO2 SLP175 T02330228
KMCO 071053Z 00000KT 7SM FEW015 SCT280 23/23 A3006 RMK AO2 SLP178 T02330228
KMCO 071153Z 20005KT 10SM FEW280 25/24 A3006 RMK AO2 SLP179 70036 T02500244 10250 20233 51008
KMCO 071253Z 21006KT 10SM FEW020 FEW300 27/25 A3008 RMK AO2 SLP186 T02720250



Page loaded:  13:47 UTC  |   06:47 AM Pacific  |   07:47 AM Mountain  |   08:47 AM Central  |   09:47 AM Eastern

 

ADVISORIES

FORECASTS

FORECASTS

OBSERVATIONS

USER TOOLS

ABOUT US